createdAt,value
2019-02-21T09:50:50.557Z,0.901
2019-02-21T09:52:49.784Z,0.165
2019-02-21T09:54:50.189Z,0.445
2019-02-21T09:56:53.644Z,0.462
2019-02-21T09:58:49.962Z,0.490
2019-02-21T10:00:50.128Z,0.490
2019-02-21T10:02:53.059Z,0.524
2019-02-21T10:04:50.432Z,0.177
2019-02-21T10:06:49.883Z,0.205
2019-02-21T10:08:50.076Z,0.194
2019-02-21T10:10:50.293Z,0.188
2019-02-21T10:12:50.461Z,0.148
2019-02-21T10:14:50.735Z,0.188
2019-02-21T10:16:50.138Z,0.188
2019-02-21T10:18:50.331Z,0.137
2019-02-21T10:20:50.448Z,0.143
2019-02-21T10:22:50.670Z,0.108
2019-02-21T10:24:50.748Z,0.097
2019-02-21T10:26:50.096Z,0.194
2019-02-21T10:28:50.281Z,0.194
2019-02-21T10:30:50.447Z,0.194
2019-02-21T10:32:50.597Z,0.182
2019-02-21T10:34:50.164Z,0.177
2019-02-21T10:36:50.377Z,0.143
2019-02-21T10:38:50.639Z,0.182
2019-02-21T10:40:49.819Z,0.205
2019-02-21T10:42:49.952Z,0.160
2019-02-21T10:44:50.286Z,0.154
2019-02-21T10:46:50.631Z,0.194
2019-02-21T10:48:49.962Z,0.194
2019-02-21T10:50:50.178Z,0.205
2019-02-21T10:52:50.312Z,0.143
2019-02-21T10:54:50.647Z,0.171
2019-02-21T10:56:49.993Z,0.148
2019-02-21T10:58:50.176Z,0.114
2019-02-21T11:00:50.366Z,0.165
2019-02-21T11:02:50.588Z,0.177
2019-02-21T11:04:55.544Z,0.200
2019-02-21T11:06:49.956Z,0.143
2019-02-21T11:08:50.264Z,0.194
2019-02-21T11:10:50.445Z,0.165
2019-02-21T11:12:50.596Z,0.154
2019-02-21T11:14:49.833Z,0.194
2019-02-21T11:16:50.176Z,0.143
2019-02-21T11:18:50.354Z,0.194
2019-02-21T11:20:50.577Z,0.200
2019-02-21T11:22:49.887Z,0.165
2019-02-21T11:24:50.096Z,0.462
2019-02-21T11:26:50.507Z,0.479
2019-02-21T11:28:49.886Z,0.462
2019-02-21T11:30:50.154Z,0.160
2019-02-21T11:32:50.373Z,0.268
2019-02-21T11:34:49.949Z,0.211
2019-02-21T11:36:50.285Z,0.154
2019-02-21T11:38:50.429Z,0.194
2019-02-21T11:40:50.742Z,0.165
2019-02-21T11:42:49.896Z,0.188
2019-02-21T11:44:50.076Z,0.125
2019-02-21T11:46:50.506Z,0.125
2019-02-21T11:48:50.753Z,0.217
2019-02-21T11:50:50.056Z,0.143
2019-02-21T11:52:50.321Z,0.165
2019-02-21T11:54:50.478Z,0.200
2019-02-21T11:56:49.957Z,0.160
2019-02-21T11:58:50.091Z,0.165
2019-02-21T12:00:50.348Z,0.154
2019-02-21T12:02:50.473Z,0.160
2019-02-21T12:04:50.087Z,0.182
2019-02-21T12:06:50.477Z,0.177
2019-02-21T12:08:50.625Z,0.120
2019-02-21T12:10:51.437Z,0.143
2019-02-21T12:12:50.652Z,0.143
2019-02-21T12:14:49.797Z,0.291
2019-02-21T12:16:50.219Z,0.291
2019-02-21T12:18:50.451Z,0.291
2019-02-21T12:38:49.888Z,0.467
2019-02-21T12:40:50.289Z,0.450
2019-02-21T12:42:50.658Z,0.450
2019-02-21T12:44:49.822Z,0.382
2019-02-21T12:46:50.180Z,0.348
2019-02-21T12:48:50.362Z,0.456
2019-02-21T12:50:50.468Z,0.524
2019-02-21T12:52:50.765Z,0.524
2019-02-21T13:00:50.474Z,0.490
2019-02-21T13:02:50.758Z,0.154
2019-02-21T13:04:50.356Z,0.154
2019-02-21T13:06:49.788Z,0.154
2019-02-21T13:24:50.758Z,0.473
2019-02-21T13:26:50.077Z,0.479
2019-02-21T13:28:50.283Z,0.479
2019-02-21T13:30:50.450Z,0.479
2019-02-21T14:08:49.864Z,0.160
2019-02-21T14:10:50.153Z,0.160
2019-02-21T14:12:50.379Z,0.143
2019-02-21T14:14:50.544Z,0.473
2019-02-21T14:16:49.926Z,0.228
2019-02-21T14:18:50.035Z,0.137
2019-02-21T14:20:50.366Z,0.194
2019-02-21T14:22:50.638Z,0.154
2019-02-21T14:24:49.974Z,0.200
2019-02-21T14:26:50.249Z,0.182
2019-02-21T14:28:50.491Z,0.143
2019-02-21T14:30:50.688Z,0.200
2019-02-21T14:32:50.057Z,0.114
2019-02-21T14:34:50.707Z,0.217
2019-02-21T14:36:50.119Z,0.125
2019-02-21T14:38:50.296Z,0.160
2019-02-21T14:40:50.572Z,0.120
2019-02-21T14:42:49.862Z,0.120
2019-02-21T14:44:50.138Z,0.120
2019-02-21T15:02:50.190Z,0.559
2019-02-21T15:04:50.214Z,0.479
2019-02-21T15:06:50.432Z,0.479
